sensor_id;sensor_type;location;lat;lon;timestamp;P1;durP1;ratioP1;P2;durP2;ratioP2
15476;SDS011;7840;42.702;23.296;2022-08-04T00:01:27;5.80;;;5.20;;
15476;SDS011;7840;42.702;23.296;2022-08-04T00:04:00;5.20;;;4.80;;
15476;SDS011;7840;42.702;23.296;2022-08-04T00:06:33;5.53;;;4.28;;
15476;SDS011;7840;42.702;23.296;2022-08-04T00:09:13;7.65;;;5.00;;
15476;SDS011;7840;42.702;23.296;2022-08-04T00:11:56;5.80;;;4.78;;
15476;SDS011;7840;42.702;23.296;2022-08-04T00:14:27;4.97;;;4.57;;
15476;SDS011;7840;42.702;23.296;2022-08-04T00:17:01;5.63;;;4.72;;
15476;SDS011;7840;42.702;23.296;2022-08-04T00:19:39;7.13;;;5.10;;
15476;SDS011;7840;42.702;23.296;2022-08-04T00:22:13;6.40;;;5.00;;
15476;SDS011;7840;42.702;23.296;2022-08-04T00:24:48;7.22;;;4.88;;
15476;SDS011;7840;42.702;23.296;2022-08-04T00:27:20;6.15;;;5.65;;
15476;SDS011;7840;42.702;23.296;2022-08-04T00:29:48;6.00;;;5.40;;
15476;SDS011;7840;42.702;23.296;2022-08-04T00:32:16;6.15;;;5.15;;
15476;SDS011;7840;42.702;23.296;2022-08-04T00:34:44;7.05;;;5.60;;
15476;SDS011;7840;42.702;23.296;2022-08-04T00:37:13;6.05;;;5.45;;
15476;SDS011;7840;42.702;23.296;2022-08-04T00:39:41;6.25;;;5.65;;
15476;SDS011;7840;42.702;23.296;2022-08-04T00:45:12;7.53;;;5.10;;
15476;SDS011;7840;42.702;23.296;2022-08-04T00:47:57;6.35;;;5.20;;
15476;SDS011;7840;42.702;23.296;2022-08-04T00:50:34;5.80;;;5.20;;
15476;SDS011;7840;42.702;23.296;2022-08-04T00:53:12;5.78;;;5.22;;
15476;SDS011;7840;42.702;23.296;2022-08-04T00:56:03;5.35;;;4.95;;
15476;SDS011;7840;42.702;23.296;2022-08-04T00:58:53;8.23;;;5.80;;
15476;SDS011;7840;42.702;23.296;2022-08-04T01:01:32;6.07;;;5.05;;
15476;SDS011;7840;42.702;23.296;2022-08-04T01:04:19;6.07;;;5.45;;
15476;SDS011;7840;42.702;23.296;2022-08-04T01:09:51;6.25;;;5.72;;
15476;SDS011;7840;42.702;23.296;2022-08-04T01:15:29;7.95;;;5.78;;
15476;SDS011;7840;42.702;23.296;2022-08-04T01:18:12;6.30;;;5.65;;
15476;SDS011;7840;42.702;23.296;2022-08-04T01:20:49;6.35;;;5.80;;
15476;SDS011;7840;42.702;23.296;2022-08-04T01:23:34;7.95;;;5.82;;
15476;SDS011;7840;42.702;23.296;2022-08-04T01:26:26;6.70;;;5.90;;
15476;SDS011;7840;42.702;23.296;2022-08-04T01:29:13;14.02;;;9.18;;
15476;SDS011;7840;42.702;23.296;2022-08-04T01:34:30;7.50;;;6.90;;
15476;SDS011;7840;42.702;23.296;2022-08-04T01:37:07;7.30;;;6.38;;
15476;SDS011;7840;42.702;23.296;2022-08-04T01:39:56;9.13;;;6.95;;
15476;SDS011;7840;42.702;23.296;2022-08-04T01:42:30;8.35;;;7.55;;
15476;SDS011;7840;42.702;23.296;2022-08-04T01:45:01;8.27;;;7.38;;
15476;SDS011;7840;42.702;23.296;2022-08-04T01:47:30;8.13;;;7.03;;
15476;SDS011;7840;42.702;23.296;2022-08-04T01:50:03;8.95;;;7.10;;
15476;SDS011;7840;42.702;23.296;2022-08-04T01:52:34;10.18;;;8.77;;
15476;SDS011;7840;42.702;23.296;2022-08-04T01:55:14;9.07;;;6.88;;
15476;SDS011;7840;42.702;23.296;2022-08-04T01:57:43;8.48;;;6.97;;
15476;SDS011;7840;42.702;23.296;2022-08-04T02:00:15;6.72;;;6.22;;
15476;SDS011;7840;42.702;23.296;2022-08-04T02:02:45;9.02;;;6.45;;
15476;SDS011;7840;42.702;23.296;2022-08-04T02:05:14;6.80;;;6.18;;
15476;SDS011;7840;42.702;23.296;2022-08-04T02:07:46;8.57;;;6.03;;
15476;SDS011;7840;42.702;23.296;2022-08-04T02:10:26;5.45;;;5.05;;
15476;SDS011;7840;42.702;23.296;2022-08-04T02:13:01;6.13;;;5.20;;
15476;SDS011;7840;42.702;23.296;2022-08-04T02:15:40;6.03;;;5.53;;
15476;SDS011;7840;42.702;23.296;2022-08-04T02:18:19;5.85;;;5.35;;
15476;SDS011;7840;42.702;23.296;2022-08-04T02:20:54;6.15;;;5.55;;
15476;SDS011;7840;42.702;23.296;2022-08-04T02:23:28;6.97;;;5.85;;
15476;SDS011;7840;42.702;23.296;2022-08-04T02:26:00;6.60;;;5.75;;
15476;SDS011;7840;42.702;23.296;2022-08-04T02:28:32;7.35;;;5.63;;
15476;SDS011;7840;42.702;23.296;2022-08-04T02:31:12;8.77;;;6.18;;
15476;SDS011;7840;42.702;23.296;2022-08-04T02:33:45;6.68;;;6.05;;
15476;SDS011;7840;42.702;23.296;2022-08-04T02:36:20;6.68;;;6.07;;
15476;SDS011;7840;42.702;23.296;2022-08-04T02:39:05;6.47;;;5.88;;
15476;SDS011;7840;42.702;23.296;2022-08-04T02:41:53;7.45;;;5.85;;
15476;SDS011;7840;42.702;23.296;2022-08-04T02:44:25;6.70;;;6.05;;
15476;SDS011;7840;42.702;23.296;2022-08-04T02:47:00;6.32;;;5.72;;
15476;SDS011;7840;42.702;23.296;2022-08-04T02:49:34;6.10;;;5.50;;
15476;SDS011;7840;42.702;23.296;2022-08-04T02:52:12;6.43;;;5.85;;
15476;SDS011;7840;42.702;23.296;2022-08-04T02:54:42;7.05;;;5.28;;
15476;SDS011;7840;42.702;23.296;2022-08-04T02:57:12;7.07;;;5.20;;
15476;SDS011;7840;42.702;23.296;2022-08-04T02:59:49;6.93;;;5.30;;
15476;SDS011;7840;42.702;23.296;2022-08-04T03:02:26;6.35;;;5.75;;
15476;SDS011;7840;42.702;23.296;2022-08-04T03:05:02;7.10;;;5.90;;
15476;SDS011;7840;42.702;23.296;2022-08-04T03:11:04;6.22;;;5.57;;
15476;SDS011;7840;42.702;23.296;2022-08-04T03:13:54;9.10;;;5.88;;
15476;SDS011;7840;42.702;23.296;2022-08-04T03:20:01;6.88;;;6.28;;
15476;SDS011;7840;42.702;23.296;2022-08-04T03:22:51;6.63;;;6.03;;
15476;SDS011;7840;42.702;23.296;2022-08-04T03:28:53;5.95;;;5.45;;
15476;SDS011;7840;42.702;23.296;2022-08-04T03:34:45;6.47;;;5.82;;
15476;SDS011;7840;42.702;23.296;2022-08-04T03:43:48;5.93;;;5.53;;
15476;SDS011;7840;42.702;23.296;2022-08-04T03:46:43;6.88;;;6.28;;
15476;SDS011;7840;42.702;23.296;2022-08-04T03:50:02;7.20;;;6.43;;
15476;SDS011;7840;42.702;23.296;2022-08-04T03:56:30;7.05;;;5.70;;
15476;SDS011;7840;42.702;23.296;2022-08-04T03:59:39;9.40;;;6.10;;
15476;SDS011;7840;42.702;23.296;2022-08-04T04:05:48;6.97;;;6.20;;
15476;SDS011;7840;42.702;23.296;2022-08-04T04:08:42;7.63;;;5.95;;
15476;SDS011;7840;42.702;23.296;2022-08-04T04:11:32;7.05;;;6.03;;
15476;SDS011;7840;42.702;23.296;2022-08-04T04:17:33;7.57;;;5.97;;
15476;SDS011;7840;42.702;23.296;2022-08-04T04:23:39;9.73;;;6.25;;
15476;SDS011;7840;42.702;23.296;2022-08-04T04:26:34;7.85;;;6.07;;
15476;SDS011;7840;42.702;23.296;2022-08-04T04:29:17;6.90;;;6.05;;
15476;SDS011;7840;42.702;23.296;2022-08-04T04:32:09;8.90;;;6.38;;
15476;SDS011;7840;42.702;23.296;2022-08-04T04:34:52;6.93;;;6.32;;
15476;SDS011;7840;42.702;23.296;2022-08-04T04:37:45;7.55;;;6.20;;
15476;SDS011;7840;42.702;23.296;2022-08-04T04:40:27;6.07;;;5.40;;
15476;SDS011;7840;42.702;23.296;2022-08-04T04:43:12;7.20;;;6.18;;
15476;SDS011;7840;42.702;23.296;2022-08-04T04:45:56;6.68;;;5.97;;
15476;SDS011;7840;42.702;23.296;2022-08-04T04:48:35;6.90;;;6.30;;
15476;SDS011;7840;42.702;23.296;2022-08-04T04:51:13;6.95;;;6.25;;
15476;SDS011;7840;42.702;23.296;2022-08-04T04:53:50;8.85;;;6.55;;
15476;SDS011;7840;42.702;23.296;2022-08-04T04:56:26;8.70;;;6.72;;
15476;SDS011;7840;42.702;23.296;2022-08-04T04:59:18;11.65;;;6.93;;
15476;SDS011;7840;42.702;23.296;2022-08-04T05:02:02;8.52;;;6.55;;
15476;SDS011;7840;42.702;23.296;2022-08-04T05:08:00;11.93;;;6.80;;
15476;SDS011;7840;42.702;23.296;2022-08-04T05:11:03;7.35;;;6.68;;
15476;SDS011;7840;42.702;23.296;2022-08-04T05:14:02;8.75;;;6.93;;
15476;SDS011;7840;42.702;23.296;2022-08-04T05:16:36;8.07;;;7.03;;
15476;SDS011;7840;42.702;23.296;2022-08-04T05:19:13;9.13;;;6.75;;
15476;SDS011;7840;42.702;23.296;2022-08-04T05:21:49;8.10;;;7.30;;
15476;SDS011;7840;42.702;23.296;2022-08-04T05:24:23;14.02;;;7.50;;
15476;SDS011;7840;42.702;23.296;2022-08-04T05:26:58;8.88;;;7.15;;
15476;SDS011;7840;42.702;23.296;2022-08-04T05:29:45;8.13;;;7.22;;
15476;SDS011;7840;42.702;23.296;2022-08-04T05:32:19;9.05;;;7.10;;
15476;SDS011;7840;42.702;23.296;2022-08-04T05:34:51;9.18;;;7.60;;
15476;SDS011;7840;42.702;23.296;2022-08-04T05:37:24;7.40;;;6.80;;
15476;SDS011;7840;42.702;23.296;2022-08-04T05:40:01;8.30;;;7.38;;
15476;SDS011;7840;42.702;23.296;2022-08-04T05:42:31;9.77;;;7.35;;
15476;SDS011;7840;42.702;23.296;2022-08-04T05:45:06;11.18;;;7.72;;
15476;SDS011;7840;42.702;23.296;2022-08-04T05:47:36;16.35;;;7.93;;
15476;SDS011;7840;42.702;23.296;2022-08-04T05:50:05;8.40;;;7.10;;
15476;SDS011;7840;42.702;23.296;2022-08-04T05:52:36;7.68;;;6.97;;
15476;SDS011;7840;42.702;23.296;2022-08-04T05:55:07;10.80;;;7.90;;
15476;SDS011;7840;42.702;23.296;2022-08-04T05:57:39;11.13;;;8.10;;
15476;SDS011;7840;42.702;23.296;2022-08-04T06:00:07;9.68;;;7.85;;
15476;SDS011;7840;42.702;23.296;2022-08-04T06:02:37;8.30;;;7.57;;
15476;SDS011;7840;42.702;23.296;2022-08-04T06:05:06;15.18;;;7.97;;
15476;SDS011;7840;42.702;23.296;2022-08-04T06:07:38;8.70;;;7.72;;
15476;SDS011;7840;42.702;23.296;2022-08-04T06:10:07;8.90;;;7.13;;
15476;SDS011;7840;42.702;23.296;2022-08-04T06:12:35;9.45;;;8.48;;
15476;SDS011;7840;42.702;23.296;2022-08-04T06:15:07;11.25;;;9.77;;
15476;SDS011;7840;42.702;23.296;2022-08-04T06:17:41;11.00;;;8.60;;
15476;SDS011;7840;42.702;23.296;2022-08-04T06:20:14;13.73;;;8.38;;
15476;SDS011;7840;42.702;23.296;2022-08-04T06:22:47;10.13;;;9.02;;
15476;SDS011;7840;42.702;23.296;2022-08-04T06:25:25;10.10;;;9.02;;
15476;SDS011;7840;42.702;23.296;2022-08-04T06:27:56;10.10;;;8.63;;
15476;SDS011;7840;42.702;23.296;2022-08-04T06:30:25;11.00;;;9.43;;
15476;SDS011;7840;42.702;23.296;2022-08-04T06:32:52;14.75;;;9.13;;
15476;SDS011;7840;42.702;23.296;2022-08-04T06:35:22;9.25;;;8.32;;
15476;SDS011;7840;42.702;23.296;2022-08-04T06:37:51;9.55;;;8.70;;
15476;SDS011;7840;42.702;23.296;2022-08-04T06:40:36;9.50;;;8.60;;
15476;SDS011;7840;42.702;23.296;2022-08-04T06:43:05;8.55;;;7.75;;
15476;SDS011;7840;42.702;23.296;2022-08-04T06:45:34;8.73;;;7.63;;
15476;SDS011;7840;42.702;23.296;2022-08-04T06:48:06;8.32;;;7.53;;
15476;SDS011;7840;42.702;23.296;2022-08-04T06:50:41;8.43;;;7.70;;
15476;SDS011;7840;42.702;23.296;2022-08-04T06:53:13;8.82;;;7.50;;
15476;SDS011;7840;42.702;23.296;2022-08-04T06:55:41;8.15;;;7.45;;
15476;SDS011;7840;42.702;23.296;2022-08-04T06:58:13;8.00;;;7.20;;
15476;SDS011;7840;42.702;23.296;2022-08-04T07:00:42;8.30;;;7.50;;
15476;SDS011;7840;42.702;23.296;2022-08-04T07:03:14;9.82;;;8.05;;
15476;SDS011;7840;42.702;23.296;2022-08-04T07:05:42;14.20;;;7.22;;
15476;SDS011;7840;42.702;23.296;2022-08-04T07:08:13;9.73;;;7.15;;
15476;SDS011;7840;42.702;23.296;2022-08-04T07:10:41;8.13;;;6.75;;
15476;SDS011;7840;42.702;23.296;2022-08-04T07:13:11;9.68;;;6.72;;
15476;SDS011;7840;42.702;23.296;2022-08-04T07:15:42;8.88;;;7.25;;
15476;SDS011;7840;42.702;23.296;2022-08-04T07:18:16;7.25;;;6.45;;
15476;SDS011;7840;42.702;23.296;2022-08-04T07:20:45;9.55;;;7.22;;
15476;SDS011;7840;42.702;23.296;2022-08-04T07:23:22;9.05;;;7.05;;
15476;SDS011;7840;42.702;23.296;2022-08-04T07:25:53;10.40;;;7.15;;
15476;SDS011;7840;42.702;23.296;2022-08-04T07:28:31;9.10;;;7.00;;
15476;SDS011;7840;42.702;23.296;2022-08-04T07:30:58;6.93;;;6.07;;
15476;SDS011;7840;42.702;23.296;2022-08-04T07:33:30;7.95;;;6.85;;
15476;SDS011;7840;42.702;23.296;2022-08-04T07:35:57;8.73;;;7.13;;
15476;SDS011;7840;42.702;23.296;2022-08-04T07:38:27;9.40;;;6.78;;
15476;SDS011;7840;42.702;23.296;2022-08-04T07:40:57;7.80;;;7.00;;
15476;SDS011;7840;42.702;23.296;2022-08-04T07:43:30;9.98;;;6.93;;
15476;SDS011;7840;42.702;23.296;2022-08-04T07:46:02;8.85;;;6.82;;
15476;SDS011;7840;42.702;23.296;2022-08-04T07:48:43;11.38;;;7.63;;
15476;SDS011;7840;42.702;23.296;2022-08-04T07:51:11;8.77;;;7.90;;
15476;SDS011;7840;42.702;23.296;2022-08-04T07:53:39;10.40;;;7.25;;
15476;SDS011;7840;42.702;23.296;2022-08-04T07:56:28;9.50;;;6.57;;
15476;SDS011;7840;42.702;23.296;2022-08-04T07:58:56;7.68;;;6.63;;
15476;SDS011;7840;42.702;23.296;2022-08-04T08:01:28;10.50;;;7.15;;
15476;SDS011;7840;42.702;23.296;2022-08-04T08:03:58;8.60;;;6.78;;
15476;SDS011;7840;42.702;23.296;2022-08-04T08:06:27;11.13;;;5.63;;
15476;SDS011;7840;42.702;23.296;2022-08-04T08:09:00;10.70;;;5.82;;
15476;SDS011;7840;42.702;23.296;2022-08-04T08:11:33;8.20;;;6.20;;
15476;SDS011;7840;42.702;23.296;2022-08-04T08:14:05;8.60;;;5.15;;
15476;SDS011;7840;42.702;23.296;2022-08-04T08:16:35;6.93;;;5.50;;
15476;SDS011;7840;42.702;23.296;2022-08-04T08:19:19;7.40;;;5.72;;
15476;SDS011;7840;42.702;23.296;2022-08-04T08:21:48;7.10;;;5.55;;
15476;SDS011;7840;42.702;23.296;2022-08-04T08:24:16;6.63;;;5.70;;
15476;SDS011;7840;42.702;23.296;2022-08-04T08:26:58;6.35;;;5.78;;
15476;SDS011;7840;42.702;23.296;2022-08-04T08:29:41;5.93;;;5.18;;
15476;SDS011;7840;42.702;23.296;2022-08-04T08:32:09;7.68;;;4.97;;
15476;SDS011;7840;42.702;23.296;2022-08-04T08:34:39;6.47;;;5.70;;
15476;SDS011;7840;42.702;23.296;2022-08-04T08:37:11;6.20;;;4.90;;
15476;SDS011;7840;42.702;23.296;2022-08-04T08:39:44;7.57;;;5.25;;
15476;SDS011;7840;42.702;23.296;2022-08-04T08:42:24;7.25;;;4.88;;
15476;SDS011;7840;42.702;23.296;2022-08-04T08:48:39;8.57;;;5.15;;
15476;SDS011;7840;42.702;23.296;2022-08-04T08:51:29;5.57;;;4.93;;
15476;SDS011;7840;42.702;23.296;2022-08-04T08:57:28;4.57;;;4.15;;
15476;SDS011;7840;42.702;23.296;2022-08-04T09:00:09;5.45;;;4.95;;
15476;SDS011;7840;42.702;23.296;2022-08-04T09:05:50;6.85;;;5.53;;
15476;SDS011;7840;42.702;23.296;2022-08-04T09:09:03;5.82;;;4.75;;
15476;SDS011;7840;42.702;23.296;2022-08-04T09:11:47;5.20;;;4.43;;
15476;SDS011;7840;42.702;23.296;2022-08-04T09:14:24;6.53;;;4.60;;
15476;SDS011;7840;42.702;23.296;2022-08-04T09:17:02;11.68;;;4.10;;
15476;SDS011;7840;42.702;23.296;2022-08-04T09:19:41;5.93;;;3.90;;
15476;SDS011;7840;42.702;23.296;2022-08-04T09:22:18;5.22;;;4.18;;
15476;SDS011;7840;42.702;23.296;2022-08-04T09:24:53;5.85;;;3.80;;
15476;SDS011;7840;42.702;23.296;2022-08-04T09:27:29;7.60;;;4.05;;
15476;SDS011;7840;42.702;23.296;2022-08-04T09:30:28;5.63;;;3.88;;
15476;SDS011;7840;42.702;23.296;2022-08-04T09:33:06;7.40;;;4.18;;
15476;SDS011;7840;42.702;23.296;2022-08-04T09:35:46;6.28;;;3.55;;
15476;SDS011;7840;42.702;23.296;2022-08-04T09:38:19;4.13;;;3.35;;
15476;SDS011;7840;42.702;23.296;2022-08-04T09:40:58;8.13;;;3.85;;
15476;SDS011;7840;42.702;23.296;2022-08-04T09:43:32;3.88;;;3.47;;
15476;SDS011;7840;42.702;23.296;2022-08-04T09:46:12;3.53;;;3.17;;
15476;SDS011;7840;42.702;23.296;2022-08-04T09:48:47;2.92;;;2.72;;
15476;SDS011;7840;42.702;23.296;2022-08-04T09:51:23;3.13;;;2.63;;
15476;SDS011;7840;42.702;23.296;2022-08-04T09:54:04;6.63;;;2.67;;
15476;SDS011;7840;42.702;23.296;2022-08-04T09:56:47;4.55;;;2.50;;
15476;SDS011;7840;42.702;23.296;2022-08-04T09:59:24;4.43;;;2.97;;
15476;SDS011;7840;42.702;23.296;2022-08-04T10:01:57;6.28;;;3.20;;
15476;SDS011;7840;42.702;23.296;2022-08-04T10:04:31;3.67;;;2.88;;
15476;SDS011;7840;42.702;23.296;2022-08-04T10:07:15;4.05;;;2.70;;
15476;SDS011;7840;42.702;23.296;2022-08-04T10:09:57;3.22;;;2.92;;
15476;SDS011;7840;42.702;23.296;2022-08-04T10:12:43;5.13;;;2.55;;
15476;SDS011;7840;42.702;23.296;2022-08-04T10:15:24;3.03;;;2.42;;
15476;SDS011;7840;42.702;23.296;2022-08-04T10:18:07;2.95;;;2.50;;
15476;SDS011;7840;42.702;23.296;2022-08-04T10:20:50;3.28;;;2.30;;
15476;SDS011;7840;42.702;23.296;2022-08-04T10:23:32;2.80;;;2.60;;
15476;SDS011;7840;42.702;23.296;2022-08-04T10:26:18;5.90;;;2.70;;
15476;SDS011;7840;42.702;23.296;2022-08-04T10:28:59;3.38;;;3.08;;
15476;SDS011;7840;42.702;23.296;2022-08-04T10:31:32;4.85;;;2.45;;
15476;SDS011;7840;42.702;23.296;2022-08-04T10:34:02;2.72;;;2.40;;
15476;SDS011;7840;42.702;23.296;2022-08-04T10:36:39;2.70;;;2.50;;
15476;SDS011;7840;42.702;23.296;2022-08-04T10:39:17;2.60;;;2.40;;
15476;SDS011;7840;42.702;23.296;2022-08-04T10:41:53;3.20;;;2.63;;
15476;SDS011;7840;42.702;23.296;2022-08-04T10:44:32;2.90;;;2.63;;
15476;SDS011;7840;42.702;23.296;2022-08-04T10:47:31;2.63;;;2.42;;
15476;SDS011;7840;42.702;23.296;2022-08-04T10:50:04;2.65;;;2.45;;
15476;SDS011;7840;42.702;23.296;2022-08-04T10:52:51;3.30;;;2.72;;
15476;SDS011;7840;42.702;23.296;2022-08-04T10:55:41;4.00;;;2.22;;
15476;SDS011;7840;42.702;23.296;2022-08-04T10:58:15;2.33;;;2.20;;
15476;SDS011;7840;42.702;23.296;2022-08-04T11:00:49;2.70;;;2.50;;
15476;SDS011;7840;42.702;23.296;2022-08-04T11:03:22;3.28;;;2.30;;
15476;SDS011;7840;42.702;23.296;2022-08-04T11:05:56;2.35;;;2.20;;
15476;SDS011;7840;42.702;23.296;2022-08-04T11:08:28;3.85;;;2.42;;
15476;SDS011;7840;42.702;23.296;2022-08-04T11:11:02;2.65;;;2.35;;
15476;SDS011;7840;42.702;23.296;2022-08-04T11:13:37;3.00;;;2.30;;
15476;SDS011;7840;42.702;23.296;2022-08-04T11:16:12;5.65;;;2.50;;
15476;SDS011;7840;42.702;23.296;2022-08-04T11:18:45;2.78;;;2.47;;
15476;SDS011;7840;42.702;23.296;2022-08-04T11:21:19;5.35;;;2.30;;
15476;SDS011;7840;42.702;23.296;2022-08-04T11:24:08;4.45;;;2.10;;
15476;SDS011;7840;42.702;23.296;2022-08-04T11:26:47;2.05;;;1.95;;
15476;SDS011;7840;42.702;23.296;2022-08-04T11:29:59;2.15;;;2.00;;
15476;SDS011;7840;42.702;23.296;2022-08-04T11:32:33;2.30;;;2.10;;
15476;SDS011;7840;42.702;23.296;2022-08-04T11:35:31;2.63;;;1.88;;
15476;SDS011;7840;42.702;23.296;2022-08-04T11:38:19;2.08;;;1.88;;
15476;SDS011;7840;42.702;23.296;2022-08-04T11:40:53;2.03;;;1.90;;
15476;SDS011;7840;42.702;23.296;2022-08-04T11:43:38;4.22;;;2.42;;
15476;SDS011;7840;42.702;23.296;2022-08-04T11:46:11;2.08;;;1.98;;
15476;SDS011;7840;42.702;23.296;2022-08-04T11:48:46;3.22;;;2.10;;
15476;SDS011;7840;42.702;23.296;2022-08-04T11:51:39;2.63;;;2.17;;
15476;SDS011;7840;42.702;23.296;2022-08-04T11:54:11;2.58;;;2.38;;
15476;SDS011;7840;42.702;23.296;2022-08-04T11:56:39;2.47;;;2.28;;
15476;SDS011;7840;42.702;23.296;2022-08-04T11:59:09;2.42;;;2.08;;
15476;SDS011;7840;42.702;23.296;2022-08-04T12:01:42;2.20;;;2.10;;
15476;SDS011;7840;42.702;23.296;2022-08-04T12:04:25;3.75;;;2.20;;
15476;SDS011;7840;42.702;23.296;2022-08-04T12:07:04;2.70;;;2.50;;
15476;SDS011;7840;42.702;23.296;2022-08-04T12:09:43;4.00;;;2.85;;
15476;SDS011;7840;42.702;23.296;2022-08-04T12:12:19;5.32;;;2.83;;
15476;SDS011;7840;42.702;23.296;2022-08-04T12:14:56;3.25;;;2.40;;
15476;SDS011;7840;42.702;23.296;2022-08-04T12:17:30;5.80;;;2.85;;
15476;SDS011;7840;42.702;23.296;2022-08-04T12:20:03;3.72;;;2.70;;
15476;SDS011;7840;42.702;23.296;2022-08-04T12:22:35;3.42;;;3.13;;
15476;SDS011;7840;42.702;23.296;2022-08-04T12:25:07;3.35;;;2.60;;
15476;SDS011;7840;42.702;23.296;2022-08-04T12:27:39;3.92;;;2.95;;
15476;SDS011;7840;42.702;23.296;2022-08-04T12:30:11;3.42;;;3.13;;
15476;SDS011;7840;42.702;23.296;2022-08-04T12:32:41;3.22;;;2.90;;
15476;SDS011;7840;42.702;23.296;2022-08-04T12:35:20;2.70;;;2.50;;
15476;SDS011;7840;42.702;23.296;2022-08-04T12:37:54;3.72;;;2.95;;
15476;SDS011;7840;42.702;23.296;2022-08-04T12:40:29;3.35;;;3.13;;
15476;SDS011;7840;42.702;23.296;2022-08-04T12:43:05;4.55;;;2.50;;
15476;SDS011;7840;42.702;23.296;2022-08-04T12:45:40;3.00;;;2.40;;
15476;SDS011;7840;42.702;23.296;2022-08-04T12:48:10;3.40;;;2.80;;
15476;SDS011;7840;42.702;23.296;2022-08-04T12:50:40;4.38;;;2.72;;
15476;SDS011;7840;42.702;23.296;2022-08-04T12:53:14;6.05;;;3.17;;
15476;SDS011;7840;42.702;23.296;2022-08-04T12:55:45;4.55;;;2.80;;
15476;SDS011;7840;42.702;23.296;2022-08-04T12:58:31;3.03;;;2.67;;
15476;SDS011;7840;42.702;23.296;2022-08-04T13:03:44;4.35;;;2.90;;
15476;SDS011;7840;42.702;23.296;2022-08-04T13:06:24;5.47;;;2.92;;
15476;SDS011;7840;42.702;23.296;2022-08-04T13:08:55;3.83;;;2.63;;
15476;SDS011;7840;42.702;23.296;2022-08-04T13:11:32;2.70;;;2.50;;
15476;SDS011;7840;42.702;23.296;2022-08-04T13:14:02;3.45;;;2.67;;
15476;SDS011;7840;42.702;23.296;2022-08-04T13:16:33;3.22;;;2.92;;
15476;SDS011;7840;42.702;23.296;2022-08-04T13:19:01;3.50;;;3.08;;
15476;SDS011;7840;42.702;23.296;2022-08-04T13:21:42;2.80;;;2.60;;
15476;SDS011;7840;42.702;23.296;2022-08-04T13:24:12;2.72;;;2.53;;
15476;SDS011;7840;42.702;23.296;2022-08-04T13:27:04;3.10;;;2.80;;
15476;SDS011;7840;42.702;23.296;2022-08-04T13:29:38;2.90;;;2.70;;
15476;SDS011;7840;42.702;23.296;2022-08-04T13:32:07;3.78;;;3.03;;
15476;SDS011;7840;42.702;23.296;2022-08-04T13:34:35;4.38;;;2.45;;
15476;SDS011;7840;42.702;23.296;2022-08-04T13:37:09;4.15;;;2.80;;
15476;SDS011;7840;42.702;23.296;2022-08-04T13:39:48;2.83;;;2.40;;
15476;SDS011;7840;42.702;23.296;2022-08-04T13:42:23;2.55;;;2.35;;
15476;SDS011;7840;42.702;23.296;2022-08-04T13:44:53;2.67;;;2.22;;
15476;SDS011;7840;42.702;23.296;2022-08-04T13:47:24;2.72;;;2.53;;
15476;SDS011;7840;42.702;23.296;2022-08-04T13:50:05;3.20;;;3.00;;
15476;SDS011;7840;42.702;23.296;2022-08-04T13:52:52;2.45;;;2.25;;
15476;SDS011;7840;42.702;23.296;2022-08-04T13:55:21;2.60;;;2.40;;
15476;SDS011;7840;42.702;23.296;2022-08-04T13:57:56;4.82;;;2.80;;
15476;SDS011;7840;42.702;23.296;2022-08-04T14:00:36;3.47;;;2.92;;
15476;SDS011;7840;42.702;23.296;2022-08-04T14:03:12;2.85;;;2.65;;
15476;SDS011;7840;42.702;23.296;2022-08-04T14:08:41;2.70;;;2.50;;
15476;SDS011;7840;42.702;23.296;2022-08-04T14:11:14;2.63;;;2.42;;
15476;SDS011;7840;42.702;23.296;2022-08-04T14:13:44;2.50;;;2.40;;
15476;SDS011;7840;42.702;23.296;2022-08-04T14:16:18;3.00;;;2.70;;
15476;SDS011;7840;42.702;23.296;2022-08-04T14:18:47;4.53;;;2.90;;
15476;SDS011;7840;42.702;23.296;2022-08-04T14:21:22;2.78;;;2.58;;
15476;SDS011;7840;42.702;23.296;2022-08-04T14:23:53;4.72;;;2.78;;
15476;SDS011;7840;42.702;23.296;2022-08-04T14:26:26;2.70;;;2.50;;
15476;SDS011;7840;42.702;23.296;2022-08-04T14:29:09;3.00;;;2.80;;
15476;SDS011;7840;42.702;23.296;2022-08-04T14:31:40;4.60;;;2.78;;
15476;SDS011;7840;42.702;23.296;2022-08-04T14:34:11;3.13;;;2.83;;
15476;SDS011;7840;42.702;23.296;2022-08-04T14:36:51;3.20;;;2.90;;
15476;SDS011;7840;42.702;23.296;2022-08-04T14:42:19;5.18;;;3.10;;
15476;SDS011;7840;42.702;23.296;2022-08-04T14:45:07;3.50;;;2.80;;
15476;SDS011;7840;42.702;23.296;2022-08-04T14:47:40;5.80;;;2.88;;
15476;SDS011;7840;42.702;23.296;2022-08-04T14:50:08;2.63;;;2.42;;
15476;SDS011;7840;42.702;23.296;2022-08-04T14:52:37;2.97;;;2.78;;
15476;SDS011;7840;42.702;23.296;2022-08-04T14:55:13;3.47;;;2.58;;
15476;SDS011;7840;42.702;23.296;2022-08-04T14:57:43;3.83;;;2.75;;
15476;SDS011;7840;42.702;23.296;2022-08-04T15:00:11;5.53;;;2.97;;
15476;SDS011;7840;42.702;23.296;2022-08-04T15:02:50;5.50;;;2.88;;
15476;SDS011;7840;42.702;23.296;2022-08-04T15:05:19;3.60;;;2.88;;
15476;SDS011;7840;42.702;23.296;2022-08-04T15:07:54;3.03;;;2.47;;
15476;SDS011;7840;42.702;23.296;2022-08-04T15:10:21;3.15;;;2.95;;
15476;SDS011;7840;42.702;23.296;2022-08-04T15:12:51;3.35;;;3.15;;
15476;SDS011;7840;42.702;23.296;2022-08-04T15:15:19;3.45;;;2.97;;
15476;SDS011;7840;42.702;23.296;2022-08-04T15:17:48;3.25;;;2.72;;
15476;SDS011;7840;42.702;23.296;2022-08-04T15:20:17;4.50;;;2.95;;
15476;SDS011;7840;42.702;23.296;2022-08-04T15:22:57;5.55;;;2.70;;
15476;SDS011;7840;42.702;23.296;2022-08-04T15:25:30;3.40;;;3.15;;
15476;SDS011;7840;42.702;23.296;2022-08-04T15:28:01;4.53;;;3.10;;
15476;SDS011;7840;42.702;23.296;2022-08-04T15:30:30;5.05;;;3.20;;
15476;SDS011;7840;42.702;23.296;2022-08-04T15:33:02;3.38;;;3.00;;
15476;SDS011;7840;42.702;23.296;2022-08-04T15:35:32;4.63;;;3.30;;
15476;SDS011;7840;42.702;23.296;2022-08-04T15:38:01;4.43;;;2.78;;
15476;SDS011;7840;42.702;23.296;2022-08-04T15:40:35;10.23;;;5.82;;
15476;SDS011;7840;42.702;23.296;2022-08-04T15:43:17;4.20;;;2.97;;
15476;SDS011;7840;42.702;23.296;2022-08-04T15:46:02;6.43;;;3.65;;
15476;SDS011;7840;42.702;23.296;2022-08-04T15:48:30;7.50;;;4.50;;
15476;SDS011;7840;42.702;23.296;2022-08-04T15:51:02;2.75;;;2.55;;
15476;SDS011;7840;42.702;23.296;2022-08-04T15:56:44;4.13;;;3.63;;
15476;SDS011;7840;42.702;23.296;2022-08-04T15:59:14;4.63;;;3.83;;
15476;SDS011;7840;42.702;23.296;2022-08-04T16:01:42;4.80;;;3.80;;
15476;SDS011;7840;42.702;23.296;2022-08-04T16:04:19;4.07;;;3.13;;
15476;SDS011;7840;42.702;23.296;2022-08-04T16:06:48;2.72;;;2.53;;
15476;SDS011;7840;42.702;23.296;2022-08-04T16:09:22;4.72;;;3.08;;
15476;SDS011;7840;42.702;23.296;2022-08-04T16:11:51;3.00;;;2.80;;
15476;SDS011;7840;42.702;23.296;2022-08-04T16:14:31;9.15;;;3.33;;
15476;SDS011;7840;42.702;23.296;2022-08-04T16:17:14;3.95;;;3.38;;
15476;SDS011;7840;42.702;23.296;2022-08-04T16:22:35;3.10;;;2.72;;
15476;SDS011;7840;42.702;23.296;2022-08-04T16:25:08;4.00;;;3.70;;
15476;SDS011;7840;42.702;23.296;2022-08-04T16:27:37;5.07;;;2.95;;
15476;SDS011;7840;42.702;23.296;2022-08-04T16:30:09;2.97;;;2.78;;
15476;SDS011;7840;42.702;23.296;2022-08-04T16:32:42;4.93;;;3.00;;
15476;SDS011;7840;42.702;23.296;2022-08-04T16:35:21;4.90;;;2.92;;
15476;SDS011;7840;42.702;23.296;2022-08-04T16:37:52;3.22;;;2.97;;
15476;SDS011;7840;42.702;23.296;2022-08-04T16:40:36;3.78;;;3.20;;
15476;SDS011;7840;42.702;23.296;2022-08-04T16:43:09;4.18;;;3.78;;
15476;SDS011;7840;42.702;23.296;2022-08-04T16:45:41;3.53;;;3.10;;
15476;SDS011;7840;42.702;23.296;2022-08-04T16:48:19;5.53;;;3.15;;
15476;SDS011;7840;42.702;23.296;2022-08-04T16:50:50;3.25;;;3.05;;
15476;SDS011;7840;42.702;23.296;2022-08-04T16:53:39;4.05;;;2.90;;